createdAt,value
2023-01-29T00:01:06.441Z,0.85
2023-01-29T00:04:06.667Z,1.1
2023-01-29T00:07:06.361Z,0.8
2023-01-29T00:10:06.448Z,0.65
2023-01-29T00:13:06.465Z,0.95
2023-01-29T00:16:06.329Z,0.55
2023-01-29T00:19:06.427Z,0.1
2023-01-29T00:22:06.491Z,0.35
2023-01-29T00:25:06.399Z,0.2
2023-01-29T00:28:06.445Z,0.3
2023-01-29T00:31:11.571Z,0.45
2023-01-29T00:34:07.415Z,0.35
2023-01-29T00:37:06.469Z,0.2
2023-01-29T00:40:06.363Z,0.2
2023-01-29T00:43:06.395Z,0.1
2023-01-29T00:46:06.421Z,0.15
2023-01-29T00:49:06.376Z,0.2
2023-01-29T00:52:06.504Z,0.3
2023-01-29T00:55:06.407Z,0.3
2023-01-29T00:58:06.397Z,0.45
2023-01-29T01:01:06.513Z,0.3
2023-01-29T01:04:06.443Z,0.15
2023-01-29T01:07:06.459Z,0
2023-01-29T01:10:06.424Z,0.2
2023-01-29T01:13:06.440Z,0.25
2023-01-29T01:16:06.453Z,0.45
2023-01-29T01:19:06.463Z,0.3
2023-01-29T01:22:06.396Z,0.25
2023-01-29T01:25:06.570Z,0.2
2023-01-29T01:28:06.418Z,0
2023-01-29T01:31:06.560Z,0.15
2023-01-29T01:34:06.501Z,0.7
2023-01-29T01:37:06.562Z,0.5
2023-01-29T01:40:06.559Z,0.8
2023-01-29T01:43:06.572Z,0.85
2023-01-29T01:46:06.543Z,1.15
2023-01-29T01:49:06.379Z,1.65
2023-01-29T01:52:06.444Z,1.55
2023-01-29T01:55:06.528Z,1.5
2023-01-29T01:58:06.511Z,1.45
2023-01-29T02:01:06.911Z,1.15
2023-01-29T02:04:06.508Z,0.5
2023-01-29T02:07:06.565Z,0.2
2023-01-29T02:10:06.594Z,0.2
2023-01-29T02:13:06.566Z,0.35
2023-01-29T02:16:06.488Z,0.65
2023-01-29T02:19:06.792Z,0.6
2023-01-29T02:22:06.488Z,0.6
2023-01-29T02:25:06.547Z,0.95
2023-01-29T02:28:06.497Z,0.8
2023-01-29T02:31:06.511Z,0.3
2023-01-29T02:34:06.503Z,1.05
2023-01-29T02:37:06.535Z,0.75
2023-01-29T02:40:06.455Z,0.55
2023-01-29T02:43:06.425Z,0.2
2023-01-29T02:46:06.613Z,0.8
2023-01-29T02:49:06.558Z,1.45
2023-01-29T02:52:06.510Z,1.15
2023-01-29T02:55:06.481Z,1
2023-01-29T02:58:06.525Z,0.6
2023-01-29T03:01:06.691Z,0.1
2023-01-29T03:04:06.611Z,0.15
2023-01-29T03:07:06.490Z,0.45
2023-01-29T03:10:06.525Z,0.45
2023-01-29T03:13:06.578Z,0.05
2023-01-29T03:16:06.711Z,0.4
2023-01-29T03:19:06.552Z,0.25
2023-01-29T03:22:06.547Z,0.55
2023-01-29T03:25:06.630Z,0.2
2023-01-29T03:28:06.637Z,0.45
2023-01-29T03:31:06.630Z,0.2
2023-01-29T03:34:06.454Z,0.15
2023-01-29T03:37:06.714Z,0.35
2023-01-29T03:40:06.532Z,0.6
2023-01-29T03:43:06.611Z,0.5
2023-01-29T03:46:06.643Z,0.25
2023-01-29T03:49:06.471Z,0.3
2023-01-29T03:52:06.552Z,0.2
2023-01-29T03:55:06.541Z,0.25
2023-01-29T03:58:06.770Z,0.45
2023-01-29T04:01:06.615Z,0.3
2023-01-29T04:04:06.838Z,0.05
2023-01-29T04:07:06.542Z,0.45
2023-01-29T04:10:06.528Z,0.45
2023-01-29T04:13:06.646Z,0.35
2023-01-29T04:16:06.549Z,0.4
2023-01-29T04:19:06.725Z,0.2
2023-01-29T04:22:06.619Z,0.35
2023-01-29T04:25:06.623Z,0.55
2023-01-29T04:28:06.556Z,0.65
2023-01-29T04:31:06.956Z,0.2
2023-01-29T04:34:06.810Z,0.45
2023-01-29T04:37:06.613Z,0.5
2023-01-29T04:40:06.614Z,1.05
2023-01-29T04:43:06.577Z,0.6
2023-01-29T04:46:08.668Z,0.35
2023-01-29T04:49:06.753Z,0.95
2023-01-29T04:52:06.659Z,0.65
2023-01-29T04:55:06.578Z,0.85
2023-01-29T04:58:06.664Z,0.25
2023-01-29T05:01:06.797Z,0.55
2023-01-29T05:04:06.681Z,0.55
2023-01-29T05:07:06.689Z,0.3
2023-01-29T05:10:06.779Z,0.5
2023-01-29T05:13:07.116Z,0.45
2023-01-29T05:16:06.800Z,0.2
2023-01-29T05:19:06.722Z,0.2
2023-01-29T05:22:06.603Z,0.5
2023-01-29T05:25:06.764Z,0.1
2023-01-29T05:28:06.558Z,0.35
2023-01-29T05:31:06.861Z,0.65
2023-01-29T05:34:06.751Z,0.45
2023-01-29T05:37:06.760Z,0.2
2023-01-29T05:40:06.632Z,0.25
2023-01-29T05:43:06.571Z,0.4
2023-01-29T05:46:06.619Z,0
2023-01-29T05:49:06.754Z,0
2023-01-29T05:52:06.644Z,0.25
2023-01-29T05:55:06.593Z,0.35
2023-01-29T05:58:07.091Z,0.2
2023-01-29T06:01:06.679Z,0.15
2023-01-29T06:04:06.791Z,0.25
2023-01-29T06:07:06.638Z,0.35
2023-01-29T06:10:06.693Z,0.2
2023-01-29T06:13:06.789Z,0.35
2023-01-29T06:16:06.928Z,0.5
2023-01-29T06:19:06.585Z,0.65
2023-01-29T06:22:06.606Z,1.15
2023-01-29T06:25:06.664Z,0.15
2023-01-29T06:28:06.794Z,0.6
2023-01-29T06:31:23.996Z,0.2
2023-01-29T06:34:06.646Z,0.3
2023-01-29T06:37:06.643Z,0.5
2023-01-29T06:40:06.648Z,0.35
2023-01-29T06:43:06.725Z,0.35
2023-01-29T06:46:06.682Z,1
2023-01-29T06:49:06.783Z,0.95
2023-01-29T06:52:06.643Z,0.65
2023-01-29T06:55:06.698Z,0.2
2023-01-29T06:58:06.666Z,0.25
2023-01-29T07:01:06.812Z,0.7
2023-01-29T07:04:06.635Z,0.2
2023-01-29T07:07:06.705Z,0.95
2023-01-29T07:10:06.944Z,0.9
2023-01-29T07:13:06.851Z,0.45
2023-01-29T07:16:06.905Z,0.4
2023-01-29T07:19:06.788Z,0.25
2023-01-29T07:22:06.749Z,0.55
2023-01-29T07:25:06.840Z,0.75
2023-01-29T07:28:06.809Z,0.45
2023-01-29T07:31:06.851Z,0.75
2023-01-29T07:34:06.751Z,0.5
2023-01-29T07:37:06.653Z,0.45
2023-01-29T07:40:06.871Z,1.3
2023-01-29T07:43:06.943Z,0.95
2023-01-29T07:46:06.865Z,0.35
2023-01-29T07:49:06.819Z,0
2023-01-29T07:52:06.803Z,0.4
2023-01-29T07:55:06.764Z,0.55
2023-01-29T07:58:06.780Z,0.9
2023-01-29T08:01:06.966Z,0.5
2023-01-29T08:04:06.844Z,0.8
2023-01-29T08:07:06.855Z,0.75
2023-01-29T08:10:07.012Z,0.95
2023-01-29T08:13:07.564Z,1.35
2023-01-29T08:16:06.840Z,0.6
2023-01-29T08:19:06.909Z,0.45
2023-01-29T08:22:06.872Z,0.1
2023-01-29T08:25:09.732Z,0.15
2023-01-29T08:28:06.903Z,0.25
2023-01-29T08:31:06.948Z,0.55
2023-01-29T08:34:06.805Z,0.4
2023-01-29T08:37:06.886Z,0.6
2023-01-29T08:40:06.756Z,0.55
2023-01-29T08:43:09.549Z,0.35
2023-01-29T08:46:06.910Z,0.95
2023-01-29T08:49:06.861Z,0.7
2023-01-29T08:52:06.827Z,0.8
2023-01-29T08:55:06.806Z,1.95
2023-01-29T08:58:06.829Z,1.3
2023-01-29T09:01:06.963Z,1.15
2023-01-29T09:04:06.788Z,0.65
2023-01-29T09:07:06.837Z,0.8
2023-01-29T09:10:06.801Z,0.4
2023-01-29T09:13:06.840Z,1.1
2023-01-29T09:16:06.837Z,0.8
2023-01-29T09:19:06.864Z,0.65
2023-01-29T09:22:06.766Z,0.85
2023-01-29T09:25:06.845Z,0.6
2023-01-29T09:28:06.911Z,0.7
2023-01-29T09:31:06.970Z,0.5
2023-01-29T09:34:06.929Z,1.35
2023-01-29T09:37:06.927Z,1.1
2023-01-29T09:40:06.886Z,1.4
2023-01-29T09:43:06.851Z,1.05
2023-01-29T09:46:06.994Z,0.75
2023-01-29T09:49:06.991Z,1.35
2023-01-29T09:52:06.909Z,1.1
2023-01-29T09:55:06.948Z,0.8
2023-01-29T09:58:06.918Z,1.2
2023-01-29T10:01:07.375Z,0.95
2023-01-29T10:04:06.933Z,0.7
2023-01-29T10:07:06.849Z,0.8
2023-01-29T10:10:06.888Z,0.6
2023-01-29T10:13:06.953Z,0.85
2023-01-29T10:16:07.033Z,0.7
2023-01-29T10:19:06.921Z,1.15
2023-01-29T10:22:06.980Z,1.1
2023-01-29T10:25:06.838Z,1.1
2023-01-29T10:28:06.852Z,0.6
2023-01-29T10:31:07.061Z,0.45
2023-01-29T10:34:06.829Z,1.1
2023-01-29T10:37:06.888Z,0.45
2023-01-29T10:40:06.905Z,0.75
2023-01-29T10:43:06.930Z,0.9
2023-01-29T10:46:06.923Z,1.2
2023-01-29T10:49:07.007Z,1.5
2023-01-29T10:52:06.920Z,1.15
2023-01-29T10:55:06.915Z,1.25
2023-01-29T10:58:06.903Z,1.25
2023-01-29T11:01:07.022Z,1.15
2023-01-29T11:04:06.964Z,1.2
2023-01-29T11:07:07.007Z,1.65
2023-01-29T11:10:06.959Z,1.95
2023-01-29T11:13:07.013Z,1.7
2023-01-29T11:16:07.050Z,1.35
2023-01-29T11:19:06.909Z,0.8
2023-01-29T11:22:06.902Z,0.5
2023-01-29T11:25:07.012Z,1.85
2023-01-29T11:28:07.065Z,1.4
2023-01-29T11:31:07.096Z,1.4
2023-01-29T11:34:07.211Z,1.25
2023-01-29T11:37:06.995Z,0.85
2023-01-29T11:40:06.953Z,0.9
2023-01-29T11:43:07.016Z,1.2
2023-01-29T11:46:07.187Z,1.4
2023-01-29T11:49:20.448Z,0.55
2023-01-29T11:52:06.880Z,1.15
2023-01-29T11:55:06.990Z,1.15
2023-01-29T11:58:07.000Z,0.95
2023-01-29T12:01:06.978Z,0.95
2023-01-29T12:04:07.122Z,0.75
2023-01-29T12:07:07.044Z,1
2023-01-29T12:10:06.928Z,0.6
2023-01-29T12:13:07.002Z,0.7
2023-01-29T12:16:07.068Z,0.4
2023-01-29T12:19:07.041Z,0.95
2023-01-29T12:22:07.153Z,0.4
2023-01-29T12:25:07.034Z,0.65
2023-01-29T12:28:09.725Z,0.9
2023-01-29T12:31:07.241Z,1.05
2023-01-29T12:34:07.028Z,1.45
2023-01-29T12:37:07.015Z,0.9
2023-01-29T12:40:07.114Z,0.85
2023-01-29T12:43:06.983Z,0.7
2023-01-29T12:46:07.512Z,0.9
2023-01-29T12:49:07.056Z,1.4
2023-01-29T12:52:07.008Z,1.3
2023-01-29T12:55:07.049Z,0.9
2023-01-29T12:58:07.077Z,0.7
2023-01-29T13:01:06.931Z,0.85
2023-01-29T13:04:07.070Z,0.95
2023-01-29T13:07:07.065Z,0.55
2023-01-29T13:10:06.989Z,1.5
2023-01-29T13:13:06.909Z,1.35
2023-01-29T13:16:07.056Z,0.95
2023-01-29T13:19:07.129Z,1.5
2023-01-29T13:22:07.046Z,1.65
2023-01-29T13:25:07.032Z,0.35
2023-01-29T13:28:07.085Z,1
2023-01-29T13:31:07.209Z,0.65
2023-01-29T13:34:07.380Z,1.1
2023-01-29T13:37:07.045Z,0.7
2023-01-29T13:40:07.422Z,0.7
2023-01-29T13:43:07.250Z,1.3
2023-01-29T13:46:07.433Z,0.75
2023-01-29T13:49:07.144Z,0.5
2023-01-29T13:52:07.068Z,0.5
2023-01-29T13:55:07.144Z,0.45
2023-01-29T13:58:07.260Z,0.8
2023-01-29T14:01:07.169Z,0.35
2023-01-29T14:04:07.170Z,0.4
2023-01-29T14:07:07.075Z,1.4
2023-01-29T14:10:07.172Z,1.35
2023-01-29T14:13:09.650Z,1.25
2023-01-29T14:16:07.064Z,1.15
2023-01-29T14:19:07.132Z,0.8
2023-01-29T14:22:07.198Z,0.45
2023-01-29T14:25:07.114Z,0.95
2023-01-29T14:28:07.146Z,0.9
2023-01-29T14:31:07.349Z,0.9
2023-01-29T14:34:07.002Z,1.1
2023-01-29T14:37:07.160Z,0.65
2023-01-29T14:40:07.147Z,0.85
2023-01-29T14:43:07.120Z,0.4
2023-01-29T14:46:07.260Z,0.45
2023-01-29T14:49:07.071Z,0.6
2023-01-29T14:52:07.186Z,0.7
2023-01-29T14:55:07.083Z,0.45
2023-01-29T14:58:07.070Z,0.4
2023-01-29T15:01:07.131Z,0.3
2023-01-29T15:04:07.152Z,0.4
2023-01-29T15:07:07.161Z,0.5
2023-01-29T15:10:22.206Z,0.2
2023-01-29T15:13:07.112Z,0.9
2023-01-29T15:16:07.227Z,0.6
2023-01-29T15:19:07.088Z,0.25
2023-01-29T15:22:07.213Z,0.7
2023-01-29T15:25:07.093Z,0.5
2023-01-29T15:28:07.311Z,0.35
2023-01-29T15:31:07.335Z,0.15
2023-01-29T15:34:07.198Z,0.3
2023-01-29T15:37:07.155Z,0.25
2023-01-29T15:40:07.222Z,0.1
2023-01-29T15:43:07.112Z,0
2023-01-29T15:46:07.406Z,0
2023-01-29T15:49:07.266Z,0.2
2023-01-29T15:52:07.237Z,0.1
2023-01-29T15:55:07.164Z,0.35
2023-01-29T15:58:07.200Z,0.1
2023-01-29T16:01:07.234Z,0.55
2023-01-29T16:04:07.498Z,0.15
2023-01-29T16:07:07.191Z,0.15
2023-01-29T16:10:07.514Z,0.15
2023-01-29T16:13:07.216Z,0.15
2023-01-29T16:16:07.421Z,0.5
2023-01-29T16:19:07.110Z,0.35
2023-01-29T16:22:07.216Z,0.15
2023-01-29T16:25:07.242Z,0.15
2023-01-29T16:28:07.300Z,0.55
2023-01-29T16:31:07.484Z,0.25
2023-01-29T16:34:07.241Z,0.3
2023-01-29T16:37:07.268Z,0.3
2023-01-29T16:40:07.282Z,0.35
2023-01-29T16:43:07.237Z,0.05
2023-01-29T16:46:07.189Z,0.2
2023-01-29T16:49:07.194Z,0.2
2023-01-29T16:52:07.365Z,0.35
2023-01-29T16:55:07.277Z,0.1
2023-01-29T16:58:07.284Z,0.1
2023-01-29T17:01:07.570Z,0.2
2023-01-29T17:04:07.601Z,0.3
2023-01-29T17:07:07.309Z,0.3
2023-01-29T17:10:07.157Z,0
2023-01-29T17:13:07.359Z,0.25
2023-01-29T17:16:07.208Z,0.25
2023-01-29T17:19:07.492Z,0.25
2023-01-29T17:22:07.220Z,0.25
2023-01-29T17:25:07.273Z,0.3
2023-01-29T17:28:07.320Z,0.25
2023-01-29T17:31:08.326Z,0.35
2023-01-29T17:34:07.338Z,0.3
2023-01-29T17:37:07.334Z,0.3
2023-01-29T17:40:07.327Z,0.25
2023-01-29T17:43:07.311Z,0.45
2023-01-29T17:46:07.402Z,0.35
2023-01-29T17:49:07.314Z,0.45
2023-01-29T17:52:07.178Z,0.45
2023-01-29T17:55:07.255Z,0.55
2023-01-29T17:58:07.348Z,0.95
2023-01-29T18:01:07.240Z,0.85
2023-01-29T18:04:07.399Z,0.55
2023-01-29T18:07:07.269Z,0.6
2023-01-29T18:10:07.293Z,0.5
2023-01-29T18:13:07.240Z,0.5
2023-01-29T18:16:07.371Z,0.9
2023-01-29T18:19:07.276Z,0.3
2023-01-29T18:22:07.398Z,0.45
2023-01-29T18:25:07.318Z,0.25
2023-01-29T18:28:07.448Z,0.15
2023-01-29T18:31:07.608Z,0.65
2023-01-29T18:34:07.466Z,0.45
2023-01-29T18:37:07.236Z,0.35
2023-01-29T18:40:07.626Z,0.35
2023-01-29T18:43:07.357Z,0.4
2023-01-29T18:46:08.620Z,0.85
2023-01-29T18:49:07.223Z,0.75
2023-01-29T18:52:07.390Z,0.25
2023-01-29T18:55:07.346Z,0.35
2023-01-29T18:58:24.266Z,0.35
2023-01-29T19:01:07.330Z,0.4
2023-01-29T19:04:07.375Z,0.6
2023-01-29T19:07:07.446Z,0.4
2023-01-29T19:10:07.393Z,0.45
2023-01-29T19:13:07.647Z,0.25
2023-01-29T19:16:08.825Z,0.2
2023-01-29T19:19:07.338Z,0.4
2023-01-29T19:22:07.350Z,0.4
2023-01-29T19:25:07.288Z,0.3
2023-01-29T19:28:07.425Z,0.45
2023-01-29T19:31:07.509Z,0.8
2023-01-29T19:34:07.218Z,0.45
2023-01-29T19:37:07.370Z,0.6
2023-01-29T19:40:07.401Z,0.25
2023-01-29T19:43:07.339Z,0.55
2023-01-29T19:46:07.375Z,0.35
2023-01-29T19:49:07.337Z,0.1
2023-01-29T19:52:07.393Z,0.45
2023-01-29T19:55:07.453Z,0.4
2023-01-29T19:58:11.045Z,0.45
2023-01-29T20:01:07.493Z,0.35
2023-01-29T20:04:07.317Z,0.75
2023-01-29T20:07:07.492Z,0.4
2023-01-29T20:10:07.388Z,0.55
2023-01-29T20:13:07.497Z,0.55
2023-01-29T20:16:07.551Z,0.2
2023-01-29T20:19:13.560Z,0.8
2023-01-29T20:22:07.398Z,0.55
2023-01-29T20:25:07.367Z,0.45
2023-01-29T20:28:07.532Z,0.3
2023-01-29T20:31:07.553Z,0.2
2023-01-29T20:34:07.563Z,0.65
2023-01-29T20:37:07.352Z,0.55
2023-01-29T20:40:07.550Z,0.5
2023-01-29T20:43:07.715Z,0.4
2023-01-29T20:46:09.891Z,0.4
2023-01-29T20:49:07.468Z,0.5
2023-01-29T20:52:07.629Z,0.65
2023-01-29T20:55:07.691Z,0.8
2023-01-29T20:58:08.021Z,0.9
2023-01-29T21:01:07.688Z,1.3
2023-01-29T21:04:07.424Z,0.5
2023-01-29T21:07:07.457Z,0.5
2023-01-29T21:10:07.582Z,0.95
2023-01-29T21:13:07.554Z,0.5
2023-01-29T21:16:07.411Z,1.15
2023-01-29T21:19:07.580Z,0.95
2023-01-29T21:22:07.328Z,0.7
2023-01-29T21:25:07.483Z,0.45
2023-01-29T21:28:07.544Z,1.3
2023-01-29T21:31:07.482Z,1
2023-01-29T21:34:08.149Z,1.5
2023-01-29T21:37:09.157Z,1.15
2023-01-29T21:40:08.014Z,0.8
2023-01-29T21:43:08.001Z,1.85
2023-01-29T21:46:15.108Z,1.65
2023-01-29T21:49:07.411Z,1.8
2023-01-29T21:52:07.428Z,2.3
2023-01-29T21:55:13.767Z,2.55
2023-01-29T21:58:07.437Z,1.9
2023-01-29T22:01:37.140Z,2.7
2023-01-29T22:04:07.525Z,2.55
2023-01-29T22:07:07.632Z,2.1
2023-01-29T22:10:07.676Z,2.35
2023-01-29T22:13:07.380Z,3.05
2023-01-29T22:16:07.543Z,1.8
2023-01-29T22:19:07.551Z,1.75
2023-01-29T22:22:07.859Z,1.85
2023-01-29T22:25:07.517Z,2.15
2023-01-29T22:28:07.652Z,2.4
2023-01-29T22:31:07.780Z,2.5
2023-01-29T22:34:07.695Z,2.85
2023-01-29T22:37:07.433Z,3.5
2023-01-29T22:40:07.480Z,2.55
2023-01-29T22:43:07.451Z,2.65
2023-01-29T22:46:07.553Z,2.9
2023-01-29T22:49:07.470Z,2.7
2023-01-29T22:52:07.433Z,2.45
2023-01-29T22:55:07.571Z,2.5
2023-01-29T22:58:07.484Z,2.4
2023-01-29T23:01:07.623Z,2.5
2023-01-29T23:04:07.512Z,2.5
2023-01-29T23:07:07.652Z,2.5
2023-01-29T23:10:08.119Z,1.75
2023-01-29T23:13:07.586Z,2.55
2023-01-29T23:16:07.834Z,1.7
2023-01-29T23:19:07.492Z,1.6
2023-01-29T23:22:07.591Z,1.1
2023-01-29T23:25:07.502Z,2.75
2023-01-29T23:28:07.613Z,2
2023-01-29T23:31:07.782Z,1.8
2023-01-29T23:34:07.574Z,2.1
2023-01-29T23:37:07.588Z,2.25
2023-01-29T23:40:07.605Z,3.6
2023-01-29T23:43:07.624Z,2.3
2023-01-29T23:46:07.507Z,2.75
2023-01-29T23:49:07.643Z,2.25
2023-01-29T23:52:07.573Z,1.55
2023-01-29T23:55:07.572Z,2.2
2023-01-29T23:58:07.545Z,2.1
